createdAt,value
2022-09-28T00:01:21.287Z,101276.88
2022-09-28T00:06:25.106Z,101275.88
2022-09-28T00:11:28.432Z,101267.81
2022-09-28T00:16:34.042Z,101258.94
2022-09-28T00:21:37.991Z,101250.06
2022-09-28T00:26:43.515Z,101251.91
2022-09-28T00:31:46.138Z,101242.84
2022-09-28T00:36:48.955Z,101246.38
2022-09-28T00:41:51.460Z,101240.34
2022-09-28T00:46:56.076Z,101239.34
2022-09-28T00:51:58.534Z,101236.66
2022-09-28T00:57:03.130Z,101231.44
2022-09-28T01:02:05.235Z,101229.75
2022-09-28T01:07:09.174Z,101229.63
2022-09-28T01:12:11.710Z,101224.25
2022-09-28T01:17:20.587Z,101215.34
2022-09-28T01:23:02.251Z,101219.03
2022-09-28T01:28:14.607Z,101212.69
2022-09-28T01:33:23.683Z,101202.94
2022-09-28T01:38:31.481Z,101207.31
2022-09-28T01:43:38.661Z,101196.59
2022-09-28T01:48:50.328Z,101192.22
2022-09-28T01:54:00.733Z,101184.03
2022-09-28T01:59:06.671Z,101175.28
2022-09-28T02:04:23.813Z,101171.63
2022-09-28T02:09:49.634Z,101165.41
2022-09-28T02:14:57.110Z,101152.84
2022-09-28T02:19:59.501Z,101147.47
2022-09-28T02:25:31.643Z,101133.22
2022-09-28T02:30:37.312Z,101124.34
2022-09-28T02:35:42.032Z,101126.03
2022-09-28T02:41:11.701Z,101113.63
2022-09-28T02:46:28.580Z,101109.94
2022-09-28T02:51:46.374Z,101106.56
2022-09-28T02:56:50.563Z,101101.06
2022-09-28T03:02:10.830Z,101096.69
2022-09-28T03:07:12.844Z,101094.84
2022-09-28T03:12:19.678Z,101086.94
2022-09-28T03:17:22.247Z,101084.97
2022-09-28T03:22:24.326Z,101079.91
2022-09-28T03:27:26.394Z,101079.06
2022-09-28T03:32:28.437Z,101076.38
2022-09-28T03:37:30.544Z,101077.41
2022-09-28T03:42:35.448Z,101070.19
2022-09-28T03:47:37.672Z,101072.69
2022-09-28T03:52:39.663Z,101062.16
2022-09-28T03:57:41.704Z,101060.28
2022-09-28T04:02:43.859Z,101065.84
2022-09-28T04:07:46.070Z,101056.94
2022-09-28T04:12:49.897Z,101068.50
2022-09-28T04:17:52.798Z,101059.47
2022-09-28T04:23:17.554Z,101060.47
2022-09-28T04:28:38.274Z,101064.84
2022-09-28T04:33:40.791Z,101066.69
2022-09-28T04:38:52.874Z,101041.00
2022-09-28T04:43:57.326Z,101043.06
2022-09-28T04:49:00.583Z,101038.19
2022-09-28T04:54:21.410Z,101032.66
2022-09-28T04:59:23.703Z,101039.88
2022-09-28T05:04:26.354Z,101025.44
2022-09-28T05:09:56.094Z,101030.81
2022-09-28T05:14:58.095Z,101027.31
2022-09-28T05:20:00.868Z,101030.97
2022-09-28T05:25:03.417Z,101023.78
2022-09-28T05:30:12.603Z,101023.94
2022-09-28T05:35:32.047Z,101038.19
2022-09-28T05:40:34.168Z,101027.59
2022-09-28T05:45:36.443Z,101018.56
2022-09-28T05:50:39.796Z,101019.56
2022-09-28T05:55:41.803Z,101020.25
2022-09-28T06:00:44.349Z,101017.72
2022-09-28T06:05:47.640Z,101023.09
2022-09-28T06:10:49.742Z,101021.41
2022-09-28T06:15:52.280Z,101018.88
2022-09-28T06:20:54.303Z,101018.88
2022-09-28T06:26:06.070Z,101007.59
2022-09-28T06:31:08.395Z,101003.09
2022-09-28T06:36:18.883Z,101011.41
2022-09-28T06:41:21.219Z,101006.75
2022-09-28T06:46:23.556Z,101004.22
2022-09-28T06:51:46.256Z,100995.34
2022-09-28T06:56:57.231Z,100996.19
2022-09-28T07:01:59.911Z,100987.47
2022-09-28T07:07:37.206Z,100988.13
2022-09-28T07:12:55.254Z,100985.78
2022-09-28T07:18:08.257Z,100992.66
2022-09-28T07:23:18.638Z,100987.47
2022-09-28T07:28:43.205Z,100995.19
2022-09-28T07:34:03.992Z,101003.38
2022-09-28T07:39:26.033Z,101004.41
2022-09-28T07:44:29.851Z,101006.25
2022-09-28T07:49:32.987Z,101013.44
2022-09-28T07:54:55.698Z,101013.94
2022-09-28T08:00:12.141Z,101012.59
2022-09-28T08:05:18.968Z,101016.78
2022-09-28T08:10:21.105Z,101008.75
2022-09-28T08:15:55.655Z,101004.41
2022-09-28T08:21:26.550Z,101012.44
2022-09-28T08:26:29.855Z,101007.09
2022-09-28T08:31:33.057Z,101004.41
2022-09-28T08:36:49.036Z,101014.28
2022-09-28T08:42:42.938Z,101017.09
2022-09-28T08:48:20.974Z,101022.47
2022-09-28T08:54:11.753Z,101011.91
2022-09-28T08:59:56.599Z,101020.09
2022-09-28T09:05:13.570Z,101032.81
2022-09-28T09:10:57.980Z,101021.25
2022-09-28T09:16:36.687Z,101024.09
2022-09-28T09:22:17.712Z,101044.69
2022-09-28T09:28:02.243Z,101041.31
2022-09-28T09:33:13.669Z,101035.13
2022-09-28T09:38:47.524Z,101047.69
2022-09-28T09:44:30.665Z,101033.44
2022-09-28T09:50:06.868Z,101035.28
2022-09-28T09:55:11.004Z,101026.41
2022-09-28T10:00:19.401Z,101030.91
2022-09-28T10:05:36.083Z,101032.75
2022-09-28T10:10:39.366Z,101024.84
2022-09-28T10:15:48.223Z,101028.22
2022-09-28T10:21:05.005Z,101031.75
2022-09-28T10:26:38.162Z,101022.88
2022-09-28T10:31:50.382Z,101031.75
2022-09-28T10:37:04.526Z,101008.78
2022-09-28T10:42:38.976Z,101025.41
2022-09-28T10:47:44.579Z,101020.88
2022-09-28T10:52:49.035Z,101010.31
2022-09-28T10:58:29.098Z,101004.97
2022-09-28T11:03:32.083Z,101014.69
2022-09-28T11:08:44.531Z,101008.34
2022-09-28T11:13:54.674Z,101012.16
2022-09-28T11:19:26.351Z,101008.47
2022-09-28T11:24:29.688Z,100990.38
2022-09-28T11:29:47.050Z,100994.94
2022-09-28T11:35:19.921Z,100980.69
2022-09-28T11:40:41.066Z,100959.06
2022-09-28T11:46:09.284Z,100971.47
2022-09-28T11:51:32.304Z,100965.47
2022-09-28T11:56:40.152Z,100957.22
2022-09-28T12:01:49.090Z,100960.75
2022-09-28T12:07:14.225Z,100950.19
2022-09-28T12:12:33.808Z,100929.44
2022-09-28T12:17:46.892Z,100915.84
2022-09-28T12:23:02.903Z,100931.13
2022-09-28T12:28:13.453Z,100916.88
2022-09-28T12:33:15.764Z,100932.66
2022-09-28T12:38:29.668Z,100916.72
2022-09-28T12:43:54.745Z,100892.63
2022-09-28T12:54:36.907Z,100881.56
2022-09-28T12:59:47.348Z,100871.03
2022-09-28T13:05:26.729Z,100878.22
2022-09-28T13:10:55.108Z,100871.84
2022-09-28T13:16:12.849Z,100865.81
2022-09-28T13:21:28.523Z,100866.47
2022-09-28T13:26:38.182Z,100875.22
2022-09-28T13:31:53.029Z,100881.41
2022-09-28T13:37:24.292Z,100850.38
2022-09-28T13:42:44.480Z,100861.81
2022-09-28T13:47:58.421Z,100852.78
2022-09-28T13:53:08.167Z,100876.06
2022-09-28T13:58:38.589Z,100855.44
2022-09-28T14:03:49.668Z,100854.59
2022-09-28T14:09:13.435Z,100849.25
2022-09-28T14:14:16.199Z,100846.56
2022-09-28T14:19:24.488Z,100833.50
2022-09-28T14:24:45.359Z,100840.50
2022-09-28T14:29:53.975Z,100855.59
2022-09-28T14:35:03.991Z,100844.72
2022-09-28T14:40:35.580Z,100841.06
2022-09-28T14:45:38.515Z,100820.44
2022-09-28T14:50:40.797Z,100814.09
2022-09-28T14:55:51.441Z,100824.97
2022-09-28T15:01:02.881Z,100829.50
2022-09-28T15:06:05.100Z,100800.84
2022-09-28T15:11:14.674Z,100784.75
2022-09-28T15:16:17.978Z,100788.28
2022-09-28T15:21:20.888Z,100794.81
2022-09-28T15:26:31.071Z,100776.88
2022-09-28T15:31:36.013Z,100759.81
2022-09-28T15:36:43.309Z,100762.34
2022-09-28T15:41:47.969Z,100760.31
2022-09-28T15:46:52.232Z,100768.53
2022-09-28T15:51:58.228Z,100759.47
2022-09-28T15:57:02.822Z,100765.84
2022-09-28T16:02:22.826Z,100769.53
2022-09-28T16:07:41.935Z,100758.81
2022-09-28T16:12:48.857Z,100764.66
2022-09-28T16:17:52.473Z,100757.97
2022-09-28T16:22:57.042Z,100749.78
2022-09-28T16:27:59.197Z,100745.22
2022-09-28T16:33:05.812Z,100735.34
2022-09-28T16:38:14.534Z,100737.53
2022-09-28T16:43:31.322Z,100728.47
2022-09-28T16:48:37.583Z,100725.81
2022-09-28T16:53:58.216Z,100732.84
2022-09-28T16:59:01.298Z,100724.97
2022-09-28T17:04:03.555Z,100723.13
2022-09-28T17:09:07.304Z,100717.59
2022-09-28T17:14:09.641Z,100730.16
2022-09-28T17:19:24.022Z,100727.63
2022-09-28T17:24:26.318Z,100739.84
2022-09-28T17:29:28.352Z,100737.03
2022-09-28T17:34:30.410Z,100735.34
2022-09-28T17:39:32.374Z,100732.66
2022-09-28T17:44:34.596Z,100737.03
2022-09-28T17:49:38.978Z,100742.38
2022-09-28T17:54:40.968Z,100745.06
2022-09-28T17:59:42.924Z,100744.22
2022-09-28T18:10:24.547Z,100744.06
2022-09-28T18:15:26.847Z,100753.09
2022-09-28T18:20:29.875Z,100759.47
2022-09-28T18:25:32.231Z,100755.78
2022-09-28T18:30:34.290Z,100744.22
2022-09-28T18:35:36.937Z,100758.31
2022-09-28T18:40:39.065Z,100760.31
2022-09-28T18:45:41.403Z,100752.09
2022-09-28T18:50:43.562Z,100759.88
2022-09-28T18:55:45.673Z,100754.63
2022-09-28T19:00:47.840Z,100761.84
2022-09-28T19:05:49.823Z,100752.78
2022-09-28T19:10:51.806Z,100751.13
2022-09-28T19:15:53.791Z,100762.69
2022-09-28T19:20:55.770Z,100765.34
2022-09-28T19:25:58.024Z,100766.03
2022-09-28T19:36:13.734Z,100774.09
2022-09-28T19:41:40.775Z,100780.28
2022-09-28T19:46:44.306Z,100784.50
2022-09-28T19:57:15.946Z,100787.88
2022-09-28T20:02:18.292Z,100788.03
2022-09-28T20:07:20.817Z,100787.34
2022-09-28T20:12:23.334Z,100786.69
2022-09-28T20:17:25.304Z,100780.47
2022-09-28T20:22:27.263Z,100774.78
2022-09-28T20:27:29.309Z,100774.94
2022-09-28T20:32:32.507Z,100778.63
2022-09-28T20:37:34.808Z,100781.31
2022-09-28T20:42:38.183Z,100784.81
2022-09-28T20:47:40.752Z,100784.13
2022-09-28T20:52:42.745Z,100789.47
2022-09-28T20:57:45.521Z,100790.31
2022-09-28T21:02:51.664Z,100793.00
2022-09-28T21:07:53.645Z,100769.84
2022-09-28T21:12:55.582Z,100786.81
2022-09-28T21:17:57.781Z,100780.59
2022-09-28T21:22:59.772Z,100773.56
2022-09-28T21:28:01.853Z,100763.66
2022-09-28T21:33:03.796Z,100772.72
2022-09-28T21:38:06.079Z,100778.06
2022-09-28T21:43:08.210Z,100768.69
2022-09-28T21:48:10.142Z,100773.56
2022-09-28T21:53:12.079Z,100764.66
2022-09-28T21:58:14.040Z,100765.50
2022-09-28T22:03:17.312Z,100773.56
2022-09-28T22:08:20.350Z,100744.88
2022-09-28T22:13:22.562Z,100757.47
2022-09-28T22:18:27.129Z,100758.47
2022-09-28T22:23:30.163Z,100762.97
2022-09-28T22:28:32.439Z,100760.00
2022-09-28T22:33:34.793Z,100765.50
2022-09-28T22:38:37.530Z,100755.47
2022-09-28T22:43:39.659Z,100751.81
2022-09-28T22:48:44.651Z,100741.09
2022-09-28T22:53:47.223Z,100742.06
2022-09-28T22:58:49.233Z,100736.72
2022-09-28T23:03:53.014Z,100725.16
2022-09-28T23:08:55.393Z,100715.28
2022-09-28T23:13:59.076Z,100709.22
2022-09-28T23:19:01.198Z,100705.53
2022-09-28T23:24:03.624Z,100698.66
2022-09-28T23:29:06.216Z,100700.50
2022-09-28T23:34:10.508Z,100699.50
2022-09-28T23:39:12.476Z,100687.09
2022-09-28T23:44:14.523Z,100685.25
2022-09-28T23:49:16.600Z,100677.22
2022-09-28T23:54:18.839Z,100673.69
2022-09-28T23:59:20.837Z,100662.13
